sensor_id;sensor_type;location;lat;lon;timestamp;pressure;altitude;pressure_sealevel;temperature;humidity
36222;BME280;22266;52.340;4.962;2022-12-17T00:01:28;102225.22;;;0.24;80.17
36222;BME280;22266;52.340;4.962;2022-12-17T00:04:13;102220.69;;;0.27;80.03
36222;BME280;22266;52.340;4.962;2022-12-17T00:06:58;102217.09;;;0.28;80.25
36222;BME280;22266;52.340;4.962;2022-12-17T00:09:43;102221.34;;;0.30;80.24
36222;BME280;22266;52.340;4.962;2022-12-17T00:12:27;102219.25;;;0.35;79.90
36222;BME280;22266;52.340;4.962;2022-12-17T00:15:12;102217.38;;;0.37;80.13
36222;BME280;22266;52.340;4.962;2022-12-17T00:18:06;102219.25;;;0.35;79.69
36222;BME280;22266;52.340;4.962;2022-12-17T00:20:56;102220.31;;;0.33;79.43
36222;BME280;22266;52.340;4.962;2022-12-17T00:23:42;102207.06;;;0.33;79.90
36222;BME280;22266;52.340;4.962;2022-12-17T00:26:27;102212.38;;;0.33;79.81
36222;BME280;22266;52.340;4.962;2022-12-17T00:29:13;102210.66;;;0.32;79.29
36222;BME280;22266;52.340;4.962;2022-12-17T00:31:58;102226.66;;;0.30;79.10
36222;BME280;22266;52.340;4.962;2022-12-17T00:34:43;102219.94;;;0.24;79.49
36222;BME280;22266;52.340;4.962;2022-12-17T00:37:28;102225.47;;;0.20;79.03
36222;BME280;22266;52.340;4.962;2022-12-17T00:40:14;102232.88;;;0.15;79.53
36222;BME280;22266;52.340;4.962;2022-12-17T00:43:07;102232.97;;;0.13;79.76
36222;BME280;22266;52.340;4.962;2022-12-17T00:45:53;102236.81;;;0.08;78.89
36222;BME280;22266;52.340;4.962;2022-12-17T00:48:39;102243.25;;;0.04;79.54
36222;BME280;22266;52.340;4.962;2022-12-17T00:51:24;102245.50;;;-0.05;79.77
36222;BME280;22266;52.340;4.962;2022-12-17T00:54:09;102243.28;;;-0.12;79.61
36222;BME280;22266;52.340;4.962;2022-12-17T00:56:54;102242.66;;;-0.16;79.60
36222;BME280;22266;52.340;4.962;2022-12-17T00:59:39;102235.34;;;-0.12;79.89
36222;BME280;22266;52.340;4.962;2022-12-17T01:02:24;102240.41;;;-0.08;80.02
36222;BME280;22266;52.340;4.962;2022-12-17T01:05:10;102236.97;;;-0.10;79.59
36222;BME280;22266;52.340;4.962;2022-12-17T01:07:56;102248.69;;;-0.14;79.80
36222;BME280;22266;52.340;4.962;2022-12-17T01:10:41;102239.63;;;-0.10;80.24
36222;BME280;22266;52.340;4.962;2022-12-17T01:13:26;102240.75;;;-0.14;79.72
36222;BME280;22266;52.340;4.962;2022-12-17T01:16:13;102228.13;;;-0.25;79.76
36222;BME280;22266;52.340;4.962;2022-12-17T01:18:58;102231.06;;;-0.29;80.04
36222;BME280;22266;52.340;4.962;2022-12-17T01:21:44;102227.28;;;-0.25;80.61
36222;BME280;22266;52.340;4.962;2022-12-17T01:24:29;102235.72;;;-0.18;80.70
36222;BME280;22266;52.340;4.962;2022-12-17T01:27:14;102236.69;;;-0.19;80.10
36222;BME280;22266;52.340;4.962;2022-12-17T01:30:00;102236.28;;;-0.28;80.29
36222;BME280;22266;52.340;4.962;2022-12-17T01:33:03;102244.97;;;-0.26;80.26
36222;BME280;22266;52.340;4.962;2022-12-17T01:35:48;102248.84;;;-0.31;80.37
36222;BME280;22266;52.340;4.962;2022-12-17T01:38:33;102252.09;;;-0.42;80.48
36222;BME280;22266;52.340;4.962;2022-12-17T01:41:18;102256.53;;;-0.42;80.32
36222;BME280;22266;52.340;4.962;2022-12-17T01:47:29;102265.16;;;-0.39;80.43
36222;BME280;22266;52.340;4.962;2022-12-17T01:50:17;102256.94;;;-0.34;80.69
36222;BME280;22266;52.340;4.962;2022-12-17T01:53:05;102267.19;;;-0.28;80.61
36222;BME280;22266;52.340;4.962;2022-12-17T01:55:52;102273.22;;;-0.26;80.72
36222;BME280;22266;52.340;4.962;2022-12-17T01:58:38;102271.16;;;-0.21;80.63
36222;BME280;22266;52.340;4.962;2022-12-17T02:01:24;102274.56;;;-0.19;80.59
36222;BME280;22266;52.340;4.962;2022-12-17T02:04:09;102270.03;;;-0.17;80.63
36222;BME280;22266;52.340;4.962;2022-12-17T02:13:18;102276.00;;;-0.13;80.26
36222;BME280;22266;52.340;4.962;2022-12-17T02:16:29;102277.56;;;-0.25;79.81
36222;BME280;22266;52.340;4.962;2022-12-17T02:19:34;102287.41;;;-0.27;79.79
36222;BME280;22266;52.340;4.962;2022-12-17T02:22:26;102290.22;;;-0.30;80.16
36222;BME280;22266;52.340;4.962;2022-12-17T02:25:44;102282.44;;;-0.33;80.05
36222;BME280;22266;52.340;4.962;2022-12-17T02:28:33;102275.28;;;-0.31;79.96
36222;BME280;22266;52.340;4.962;2022-12-17T02:31:21;102272.28;;;-0.25;80.09
36222;BME280;22266;52.340;4.962;2022-12-17T02:34:06;102281.75;;;-0.21;80.30
36222;BME280;22266;52.340;4.962;2022-12-17T02:36:51;102284.31;;;-0.19;80.54
36222;BME280;22266;52.340;4.962;2022-12-17T02:39:37;102296.59;;;-0.18;79.69
36222;BME280;22266;52.340;4.962;2022-12-17T02:42:24;102291.47;;;-0.21;80.23
36222;BME280;22266;52.340;4.962;2022-12-17T02:45:11;102295.91;;;-0.22;80.01
36222;BME280;22266;52.340;4.962;2022-12-17T02:47:56;102301.47;;;-0.27;79.50
36222;BME280;22266;52.340;4.962;2022-12-17T02:50:41;102294.22;;;-0.23;79.70
36222;BME280;22266;52.340;4.962;2022-12-17T02:53:27;102290.53;;;-0.20;79.88
36222;BME280;22266;52.340;4.962;2022-12-17T02:56:12;102292.31;;;-0.21;80.27
36222;BME280;22266;52.340;4.962;2022-12-17T02:58:57;102293.16;;;-0.20;80.10
36222;BME280;22266;52.340;4.962;2022-12-17T03:01:43;102309.59;;;-0.30;79.53
36222;BME280;22266;52.340;4.962;2022-12-17T03:04:30;102311.28;;;-0.29;79.71
36222;BME280;22266;52.340;4.962;2022-12-17T03:07:15;102304.13;;;-0.27;80.44
36222;BME280;22266;52.340;4.962;2022-12-17T03:10:01;102301.38;;;-0.25;80.61
36222;BME280;22266;52.340;4.962;2022-12-17T03:12:46;102307.34;;;-0.21;79.96
36222;BME280;22266;52.340;4.962;2022-12-17T03:15:31;102308.19;;;-0.21;80.21
36222;BME280;22266;52.340;4.962;2022-12-17T03:18:16;102312.56;;;-0.20;79.91
36222;BME280;22266;52.340;4.962;2022-12-17T03:21:01;102316.06;;;-0.19;79.66
36222;BME280;22266;52.340;4.962;2022-12-17T03:23:45;102304.53;;;-0.18;79.93
36222;BME280;22266;52.340;4.962;2022-12-17T03:26:30;102305.28;;;-0.16;80.26
36222;BME280;22266;52.340;4.962;2022-12-17T03:29:15;102297.44;;;-0.18;79.87
36222;BME280;22266;52.340;4.962;2022-12-17T03:32:00;102293.78;;;-0.15;79.67
36222;BME280;22266;52.340;4.962;2022-12-17T03:34:45;102290.94;;;-0.12;79.85
36222;BME280;22266;52.340;4.962;2022-12-17T03:37:29;102302.75;;;-0.18;79.99
36222;BME280;22266;52.340;4.962;2022-12-17T03:40:15;102303.53;;;-0.16;80.09
36222;BME280;22266;52.340;4.962;2022-12-17T03:43:06;102315.03;;;-0.17;80.06
36222;BME280;22266;52.340;4.962;2022-12-17T03:45:52;102308.53;;;-0.11;80.07
36222;BME280;22266;52.340;4.962;2022-12-17T03:48:37;102314.69;;;-0.11;79.47
36222;BME280;22266;52.340;4.962;2022-12-17T03:51:22;102314.75;;;-0.12;79.69
36222;BME280;22266;52.340;4.962;2022-12-17T03:54:08;102321.56;;;-0.08;79.88
36222;BME280;22266;52.340;4.962;2022-12-17T03:56:53;102320.66;;;-0.07;79.96
36222;BME280;22266;52.340;4.962;2022-12-17T03:59:41;102332.16;;;-0.08;79.70
36222;BME280;22266;52.340;4.962;2022-12-17T04:02:37;102325.28;;;-0.11;80.22
36222;BME280;22266;52.340;4.962;2022-12-17T04:05:22;102327.13;;;-0.13;79.89
36222;BME280;22266;52.340;4.962;2022-12-17T04:08:07;102327.97;;;-0.12;79.71
36222;BME280;22266;52.340;4.962;2022-12-17T04:10:52;102320.72;;;-0.09;80.09
36222;BME280;22266;52.340;4.962;2022-12-17T04:13:37;102327.81;;;-0.09;79.60
36222;BME280;22266;52.340;4.962;2022-12-17T04:16:21;102319.47;;;-0.17;79.94
36222;BME280;22266;52.340;4.962;2022-12-17T04:19:11;102318.63;;;-0.18;79.65
36222;BME280;22266;52.340;4.962;2022-12-17T04:21:56;102325.59;;;-0.17;79.79
36222;BME280;22266;52.340;4.962;2022-12-17T04:24:41;102320.00;;;-0.27;79.83
36222;BME280;22266;52.340;4.962;2022-12-17T04:27:25;102323.66;;;-0.29;79.91
36222;BME280;22266;52.340;4.962;2022-12-17T04:30:11;102330.75;;;-0.30;80.54
36222;BME280;22266;52.340;4.962;2022-12-17T04:32:56;102336.63;;;-0.25;79.66
36222;BME280;22266;52.340;4.962;2022-12-17T04:35:40;102337.31;;;-0.21;80.09
36222;BME280;22266;52.340;4.962;2022-12-17T04:38:25;102345.94;;;-0.17;80.16
36222;BME280;22266;52.340;4.962;2022-12-17T04:41:10;102343.72;;;-0.25;80.18
36222;BME280;22266;52.340;4.962;2022-12-17T04:43:55;102333.13;;;-0.25;79.87
36222;BME280;22266;52.340;4.962;2022-12-17T04:46:40;102333.41;;;-0.30;79.87
36222;BME280;22266;52.340;4.962;2022-12-17T04:49:24;102328.22;;;-0.31;79.88
36222;BME280;22266;52.340;4.962;2022-12-17T04:52:09;102327.34;;;-0.32;80.40
36222;BME280;22266;52.340;4.962;2022-12-17T04:54:54;102331.44;;;-0.26;80.38
36222;BME280;22266;52.340;4.962;2022-12-17T04:57:39;102334.25;;;-0.29;80.10
36222;BME280;22266;52.340;4.962;2022-12-17T05:00:24;102333.34;;;-0.28;80.16
36222;BME280;22266;52.340;4.962;2022-12-17T05:03:11;102331.09;;;-0.20;80.37
36222;BME280;22266;52.340;4.962;2022-12-17T05:05:57;102324.19;;;-0.22;79.95
36222;BME280;22266;52.340;4.962;2022-12-17T05:08:41;102332.91;;;-0.36;79.83
36222;BME280;22266;52.340;4.962;2022-12-17T05:11:26;102334.78;;;-0.38;79.99
36222;BME280;22266;52.340;4.962;2022-12-17T05:14:14;102330.06;;;-0.33;80.48
36222;BME280;22266;52.340;4.962;2022-12-17T05:17:00;102324.97;;;-0.36;80.05
36222;BME280;22266;52.340;4.962;2022-12-17T05:19:45;102327.00;;;-0.41;80.31
36222;BME280;22266;52.340;4.962;2022-12-17T05:22:35;102316.63;;;-0.60;79.91
36222;BME280;22266;52.340;4.962;2022-12-17T05:25:21;102330.88;;;-0.63;80.88
36222;BME280;22266;52.340;4.962;2022-12-17T05:28:07;102333.19;;;-0.57;80.98
36222;BME280;22266;52.340;4.962;2022-12-17T05:30:53;102339.81;;;-0.50;80.32
36222;BME280;22266;52.340;4.962;2022-12-17T05:33:38;102348.94;;;-0.55;80.35
36222;BME280;22266;52.340;4.962;2022-12-17T05:36:23;102348.53;;;-0.63;80.91
36222;BME280;22266;52.340;4.962;2022-12-17T05:39:09;102349.28;;;-0.61;80.94
36222;BME280;22266;52.340;4.962;2022-12-17T05:41:54;102354.94;;;-0.52;80.46
36222;BME280;22266;52.340;4.962;2022-12-17T05:44:39;102355.19;;;-0.40;80.64
36222;BME280;22266;52.340;4.962;2022-12-17T05:47:23;102364.56;;;-0.35;80.02
36222;BME280;22266;52.340;4.962;2022-12-17T05:50:08;102364.47;;;-0.33;80.41
36222;BME280;22266;52.340;4.962;2022-12-17T05:53:00;102370.69;;;-0.34;80.28
36222;BME280;22266;52.340;4.962;2022-12-17T05:55:49;102362.19;;;-0.39;80.49
36222;BME280;22266;52.340;4.962;2022-12-17T05:58:35;102369.75;;;-0.33;80.34
36222;BME280;22266;52.340;4.962;2022-12-17T06:01:19;102378.53;;;-0.33;79.53
36222;BME280;22266;52.340;4.962;2022-12-17T06:04:05;102368.22;;;-0.37;79.92
36222;BME280;22266;52.340;4.962;2022-12-17T06:06:50;102363.88;;;-0.38;79.62
36222;BME280;22266;52.340;4.962;2022-12-17T06:09:35;102361.06;;;-0.35;80.07
36222;BME280;22266;52.340;4.962;2022-12-17T06:12:20;102371.28;;;-0.29;80.21
36222;BME280;22266;52.340;4.962;2022-12-17T06:15:05;102367.91;;;-0.31;80.02
36222;BME280;22266;52.340;4.962;2022-12-17T06:17:55;102373.09;;;-0.30;79.68
36222;BME280;22266;52.340;4.962;2022-12-17T06:20:42;102374.47;;;-0.38;79.71
36222;BME280;22266;52.340;4.962;2022-12-17T06:23:27;102377.09;;;-0.38;79.84
36222;BME280;22266;52.340;4.962;2022-12-17T06:26:12;102374.63;;;-0.41;80.28
36222;BME280;22266;52.340;4.962;2022-12-17T06:28:57;102370.44;;;-0.45;80.25
36222;BME280;22266;52.340;4.962;2022-12-17T06:31:41;102375.41;;;-0.39;79.83
36222;BME280;22266;52.340;4.962;2022-12-17T06:34:26;102383.94;;;-0.34;80.35
36222;BME280;22266;52.340;4.962;2022-12-17T06:37:11;102383.34;;;-0.39;79.82
36222;BME280;22266;52.340;4.962;2022-12-17T06:39:56;102386.75;;;-0.37;79.78
36222;BME280;22266;52.340;4.962;2022-12-17T06:42:40;102396.31;;;-0.35;79.69
36222;BME280;22266;52.340;4.962;2022-12-17T06:45:35;102400.41;;;-0.29;79.82
36222;BME280;22266;52.340;4.962;2022-12-17T06:48:20;102403.81;;;-0.27;80.01
36222;BME280;22266;52.340;4.962;2022-12-17T06:51:05;102399.66;;;-0.31;79.50
36222;BME280;22266;52.340;4.962;2022-12-17T06:53:49;102396.06;;;-0.30;79.93
36222;BME280;22266;52.340;4.962;2022-12-17T06:56:42;102397.25;;;-0.36;79.98
36222;BME280;22266;52.340;4.962;2022-12-17T06:59:27;102388.63;;;-0.39;79.67
36222;BME280;22266;52.340;4.962;2022-12-17T07:02:11;102387.53;;;-0.35;79.92
36222;BME280;22266;52.340;4.962;2022-12-17T07:04:56;102393.41;;;-0.30;79.57
36222;BME280;22266;52.340;4.962;2022-12-17T07:07:42;102401.94;;;-0.25;79.59
36222;BME280;22266;52.340;4.962;2022-12-17T07:10:26;102388.91;;;-0.28;80.13
36222;BME280;22266;52.340;4.962;2022-12-17T07:13:11;102395.09;;;-0.29;79.42
36222;BME280;22266;52.340;4.962;2022-12-17T07:15:56;102394.53;;;-0.34;79.60
36222;BME280;22266;52.340;4.962;2022-12-17T07:18:41;102392.88;;;-0.37;79.99
36222;BME280;22266;52.340;4.962;2022-12-17T07:21:26;102395.09;;;-0.29;79.79
36222;BME280;22266;52.340;4.962;2022-12-17T07:24:11;102407.50;;;-0.30;79.83
36222;BME280;22266;52.340;4.962;2022-12-17T07:26:56;102404.78;;;-0.28;80.04
36222;BME280;22266;52.340;4.962;2022-12-17T07:29:42;102409.28;;;-0.30;79.96
36222;BME280;22266;52.340;4.962;2022-12-17T07:32:26;102413.47;;;-0.26;79.83
36222;BME280;22266;52.340;4.962;2022-12-17T07:35:11;102416.91;;;-0.24;79.92
36222;BME280;22266;52.340;4.962;2022-12-17T07:37:58;102422.59;;;-0.32;79.27
36222;BME280;22266;52.340;4.962;2022-12-17T07:40:43;102424.22;;;-0.29;79.38
36222;BME280;22266;52.340;4.962;2022-12-17T07:43:28;102419.28;;;-0.35;79.85
36222;BME280;22266;52.340;4.962;2022-12-17T07:46:18;102434.88;;;-0.46;79.30
36222;BME280;22266;52.340;4.962;2022-12-17T07:49:04;102438.63;;;-0.51;80.04
36222;BME280;22266;52.340;4.962;2022-12-17T07:51:52;102452.13;;;-0.39;79.90
36222;BME280;22266;52.340;4.962;2022-12-17T07:54:37;102440.44;;;-0.35;80.17
36222;BME280;22266;52.340;4.962;2022-12-17T07:57:22;102442.03;;;-0.33;79.78
36222;BME280;22266;52.340;4.962;2022-12-17T08:00:07;102442.03;;;-0.33;79.71
36222;BME280;22266;52.340;4.962;2022-12-17T08:02:57;102442.94;;;-0.32;79.83
36222;BME280;22266;52.340;4.962;2022-12-17T08:05:42;102441.53;;;-0.39;79.96
36222;BME280;22266;52.340;4.962;2022-12-17T08:08:27;102443.41;;;-0.41;79.57
36222;BME280;22266;52.340;4.962;2022-12-17T08:11:12;102450.94;;;-0.34;80.21
36222;BME280;22266;52.340;4.962;2022-12-17T08:13:57;102458.00;;;-0.34;80.41
36222;BME280;22266;52.340;4.962;2022-12-17T08:16:42;102460.34;;;-0.28;80.29
36222;BME280;22266;52.340;4.962;2022-12-17T08:19:27;102461.94;;;-0.26;80.22
36222;BME280;22266;52.340;4.962;2022-12-17T08:22:14;102467.84;;;-0.20;80.03
36222;BME280;22266;52.340;4.962;2022-12-17T08:24:59;102469.72;;;-0.22;80.04
36222;BME280;22266;52.340;4.962;2022-12-17T08:27:44;102463.66;;;-0.25;79.61
36222;BME280;22266;52.340;4.962;2022-12-17T08:30:41;102473.56;;;-0.28;79.27
36222;BME280;22266;52.340;4.962;2022-12-17T08:33:26;102465.00;;;-0.33;79.98
36222;BME280;22266;52.340;4.962;2022-12-17T08:36:11;102476.19;;;-0.44;80.07
36222;BME280;22266;52.340;4.962;2022-12-17T08:38:56;102472.25;;;-0.37;79.98
36222;BME280;22266;52.340;4.962;2022-12-17T08:41:41;102475.84;;;-0.38;80.24
36222;BME280;22266;52.340;4.962;2022-12-17T08:44:29;102481.94;;;-0.36;80.61
36222;BME280;22266;52.340;4.962;2022-12-17T08:47:15;102482.25;;;-0.26;80.67
36222;BME280;22266;52.340;4.962;2022-12-17T08:50:00;102481.56;;;-0.30;80.63
36222;BME280;22266;52.340;4.962;2022-12-17T08:52:45;102475.28;;;-0.27;80.55
36222;BME280;22266;52.340;4.962;2022-12-17T08:55:30;102475.97;;;-0.23;80.16
36222;BME280;22266;52.340;4.962;2022-12-17T08:58:14;102472.47;;;-0.24;80.21
36222;BME280;22266;52.340;4.962;2022-12-17T09:01:00;102467.59;;;-0.32;80.00
36222;BME280;22266;52.340;4.962;2022-12-17T09:03:46;102464.09;;;-0.32;80.35
36222;BME280;22266;52.340;4.962;2022-12-17T09:06:31;102466.22;;;-0.23;80.45
36222;BME280;22266;52.340;4.962;2022-12-17T09:09:16;102481.25;;;-0.23;79.93
36222;BME280;22266;52.340;4.962;2022-12-17T09:12:01;102489.00;;;-0.20;80.03
36222;BME280;22266;52.340;4.962;2022-12-17T09:14:46;102497.22;;;-0.09;79.64
36222;BME280;22266;52.340;4.962;2022-12-17T09:17:31;102502.88;;;0.01;80.24
36222;BME280;22266;52.340;4.962;2022-12-17T09:20:16;102505.25;;;0.05;79.89
36222;BME280;22266;52.340;4.962;2022-12-17T09:23:01;102496.63;;;0.02;79.36
36222;BME280;22266;52.340;4.962;2022-12-17T09:25:56;102506.28;;;0.03;79.34
36222;BME280;22266;52.340;4.962;2022-12-17T09:28:41;102510.56;;;0.05;79.36
36222;BME280;22266;52.340;4.962;2022-12-17T09:31:26;102514.56;;;0.12;79.77
36222;BME280;22266;52.340;4.962;2022-12-17T09:34:11;102505.53;;;0.16;79.24
36222;BME280;22266;52.340;4.962;2022-12-17T09:36:56;102508.75;;;0.21;79.38
36222;BME280;22266;52.340;4.962;2022-12-17T09:39:40;102515.84;;;0.21;79.00
36222;BME280;22266;52.340;4.962;2022-12-17T09:42:36;102521.31;;;0.18;78.92
36222;BME280;22266;52.340;4.962;2022-12-17T09:45:36;102521.47;;;0.15;79.11
36222;BME280;22266;52.340;4.962;2022-12-17T09:51:24;102538.75;;;0.22;79.27
36222;BME280;22266;52.340;4.962;2022-12-17T09:54:23;102533.72;;;0.33;78.94
36222;BME280;22266;52.340;4.962;2022-12-17T09:57:15;102539.69;;;0.37;79.08
36222;BME280;22266;52.340;4.962;2022-12-17T10:00:23;102537.19;;;0.49;78.76
36222;BME280;22266;52.340;4.962;2022-12-17T10:03:19;102536.75;;;0.57;78.63
36222;BME280;22266;52.340;4.962;2022-12-17T10:06:11;102524.97;;;0.47;78.00
36222;BME280;22266;52.340;4.962;2022-12-17T10:09:00;102528.13;;;0.54;78.06
36222;BME280;22266;52.340;4.962;2022-12-17T10:11:45;102536.56;;;0.60;78.05
36222;BME280;22266;52.340;4.962;2022-12-17T10:14:30;102536.66;;;0.59;77.62
36222;BME280;22266;52.340;4.962;2022-12-17T10:17:21;102535.13;;;0.55;77.68
36222;BME280;22266;52.340;4.962;2022-12-17T10:20:31;102530.97;;;0.81;80.12
36222;BME280;22266;52.340;4.962;2022-12-17T10:23:28;102532.69;;;0.82;78.37
36222;BME280;22266;52.340;4.962;2022-12-17T10:29:14;102533.22;;;0.57;77.67
36222;BME280;22266;52.340;4.962;2022-12-17T10:37:51;102541.44;;;0.68;77.79
36222;BME280;22266;52.340;4.962;2022-12-17T10:40:36;102547.09;;;0.62;77.42
36222;BME280;22266;52.340;4.962;2022-12-17T10:43:31;102544.63;;;0.59;77.48
36222;BME280;22266;52.340;4.962;2022-12-17T10:46:27;102551.44;;;0.63;77.68
36222;BME280;22266;52.340;4.962;2022-12-17T10:49:16;102547.09;;;0.62;76.97
36222;BME280;22266;52.340;4.962;2022-12-17T10:52:05;102553.25;;;0.62;77.48
36222;BME280;22266;52.340;4.962;2022-12-17T10:54:56;102562.91;;;0.63;76.94
36222;BME280;22266;52.340;4.962;2022-12-17T10:57:41;102563.84;;;0.62;77.35
36222;BME280;22266;52.340;4.962;2022-12-17T11:00:33;102552.13;;;0.66;77.28
36222;BME280;22266;52.340;4.962;2022-12-17T11:06:29;102549.91;;;0.59;76.79
36222;BME280;22266;52.340;4.962;2022-12-17T11:09:42;102556.31;;;0.55;77.63
36222;BME280;22266;52.340;4.962;2022-12-17T11:12:49;102554.44;;;0.57;77.56
36222;BME280;22266;52.340;4.962;2022-12-17T11:18:50;102557.59;;;0.63;77.52
36222;BME280;22266;52.340;4.962;2022-12-17T11:21:42;102549.13;;;0.57;77.63
36222;BME280;22266;52.340;4.962;2022-12-17T11:24:45;102555.63;;;0.67;77.19
36222;BME280;22266;52.340;4.962;2022-12-17T11:27:39;102544.09;;;0.52;76.93
36222;BME280;22266;52.340;4.962;2022-12-17T11:30:27;102541.44;;;0.52;77.24
36222;BME280;22266;52.340;4.962;2022-12-17T11:33:37;102540.59;;;0.52;77.83
36222;BME280;22266;52.340;4.962;2022-12-17T11:36:32;102536.09;;;0.54;77.24
36222;BME280;22266;52.340;4.962;2022-12-17T11:39:27;102535.28;;;0.52;77.02
36222;BME280;22266;52.340;4.962;2022-12-17T11:42:23;102531.94;;;0.64;77.14
36222;BME280;22266;52.340;4.962;2022-12-17T11:45:46;102534.69;;;0.62;76.70
36222;BME280;22266;52.340;4.962;2022-12-17T11:48:47;102530.81;;;0.68;77.27
36222;BME280;22266;52.340;4.962;2022-12-17T11:52:00;102514.25;;;0.64;76.76
36222;BME280;22266;52.340;4.962;2022-12-17T11:55:07;102526.66;;;0.64;76.54
36222;BME280;22266;52.340;4.962;2022-12-17T11:58:11;102525.34;;;0.71;76.61
36222;BME280;22266;52.340;4.962;2022-12-17T12:01:21;102522.81;;;0.69;76.29
36222;BME280;22266;52.340;4.962;2022-12-17T12:07:23;102524.13;;;0.46;76.68
36222;BME280;22266;52.340;4.962;2022-12-17T12:10:24;102519.41;;;0.52;77.00
36222;BME280;22266;52.340;4.962;2022-12-17T12:13:37;102528.13;;;0.54;76.81
36222;BME280;22266;52.340;4.962;2022-12-17T12:16:47;102528.13;;;0.54;77.03
36222;BME280;22266;52.340;4.962;2022-12-17T12:19:47;102530.34;;;0.61;76.45
36222;BME280;22266;52.340;4.962;2022-12-17T12:23:02;102521.63;;;0.59;76.40
36222;BME280;22266;52.340;4.962;2022-12-17T12:26:06;102512.53;;;0.63;76.13
36222;BME280;22266;52.340;4.962;2022-12-17T12:29:23;102518.19;;;0.73;76.29
36222;BME280;22266;52.340;4.962;2022-12-17T12:32:34;102526.38;;;0.68;75.72
36222;BME280;22266;52.340;4.962;2022-12-17T12:35:23;102523.66;;;0.70;75.73
36222;BME280;22266;52.340;4.962;2022-12-17T12:38:17;102524.34;;;0.73;75.84
36222;BME280;22266;52.340;4.962;2022-12-17T12:44:17;102529.00;;;0.84;75.00
36222;BME280;22266;52.340;4.962;2022-12-17T12:47:09;102524.69;;;0.97;75.00
36222;BME280;22266;52.340;4.962;2022-12-17T12:50:07;102522.91;;;1.12;74.49
36222;BME280;22266;52.340;4.962;2022-12-17T12:53:01;102527.47;;;1.10;73.97
36222;BME280;22266;52.340;4.962;2022-12-17T12:55:46;102525.28;;;1.17;73.89
36222;BME280;22266;52.340;4.962;2022-12-17T12:58:32;102526.75;;;1.22;74.23
36222;BME280;22266;52.340;4.962;2022-12-17T13:01:18;102525.16;;;1.34;73.59
36222;BME280;22266;52.340;4.962;2022-12-17T13:04:30;102533.84;;;1.22;73.88
36222;BME280;22266;52.340;4.962;2022-12-17T13:07:22;102528.03;;;1.15;73.67
36222;BME280;22266;52.340;4.962;2022-12-17T13:09:52;102527.59;;;1.23;73.73
36222;BME280;22266;52.340;4.962;2022-12-17T13:12:44;102529.28;;;1.24;73.49
36222;BME280;22266;52.340;4.962;2022-12-17T13:15:18;102524.53;;;1.15;73.18
36222;BME280;22266;52.340;4.962;2022-12-17T13:17:57;102526.13;;;1.17;73.61
36222;BME280;22266;52.340;4.962;2022-12-17T13:20:28;102526.69;;;1.08;73.17
36222;BME280;22266;52.340;4.962;2022-12-17T13:23:13;102516.47;;;1.02;73.21
36222;BME280;22266;52.340;4.962;2022-12-17T13:25:40;102518.06;;;1.05;73.24
36222;BME280;22266;52.340;4.962;2022-12-17T13:28:27;102517.59;;;0.98;73.30
36222;BME280;22266;52.340;4.962;2022-12-17T13:31:05;102516.53;;;1.01;73.48
36222;BME280;22266;52.340;4.962;2022-12-17T13:39:18;102518.75;;;0.78;73.85
36222;BME280;22266;52.340;4.962;2022-12-17T13:41:46;102512.63;;;0.78;73.70
36222;BME280;22266;52.340;4.962;2022-12-17T13:44:21;102511.28;;;0.85;74.27
36222;BME280;22266;52.340;4.962;2022-12-17T13:46:49;102518.91;;;0.91;73.97
36222;BME280;22266;52.340;4.962;2022-12-17T13:49:25;102518.03;;;0.90;73.80
36222;BME280;22266;52.340;4.962;2022-12-17T13:52:15;102515.56;;;0.87;74.23
36222;BME280;22266;52.340;4.962;2022-12-17T13:54:42;102513.88;;;0.86;74.35
36222;BME280;22266;52.340;4.962;2022-12-17T13:57:13;102519.97;;;1.03;75.47
36222;BME280;22266;52.340;4.962;2022-12-17T13:59:40;102523.97;;;1.10;75.00
36222;BME280;22266;52.340;4.962;2022-12-17T14:02:22;102530.75;;;0.99;73.79
36222;BME280;22266;52.340;4.962;2022-12-17T14:04:53;102526.16;;;0.87;74.11
36222;BME280;22266;52.340;4.962;2022-12-17T14:07:24;102532.03;;;0.92;74.30
36222;BME280;22266;52.340;4.962;2022-12-17T14:09:51;102530.41;;;1.06;78.42
36222;BME280;22266;52.340;4.962;2022-12-17T14:12:22;102535.72;;;1.06;77.80
36222;BME280;22266;52.340;4.962;2022-12-17T14:14:58;102528.50;;;1.08;75.51
36222;BME280;22266;52.340;4.962;2022-12-17T14:17:37;102524.59;;;0.99;74.90
36222;BME280;22266;52.340;4.962;2022-12-17T14:20:12;102530.75;;;0.99;75.00
36222;BME280;22266;52.340;4.962;2022-12-17T14:22:42;102527.41;;;0.96;74.77
36222;BME280;22266;52.340;4.962;2022-12-17T14:25:19;102533.50;;;0.98;75.24
36222;BME280;22266;52.340;4.962;2022-12-17T14:27:53;102537.34;;;0.92;74.98
36222;BME280;22266;52.340;4.962;2022-12-17T14:30:32;102535.94;;;0.87;74.56
36222;BME280;22266;52.340;4.962;2022-12-17T14:33:01;102537.31;;;0.78;74.73
36222;BME280;22266;52.340;4.962;2022-12-17T14:35:33;102539.72;;;0.67;74.67
36222;BME280;22266;52.340;4.962;2022-12-17T14:38:01;102542.91;;;0.58;74.74
36222;BME280;22266;52.340;4.962;2022-12-17T14:40:28;102545.84;;;0.53;75.26
36222;BME280;22266;52.340;4.962;2022-12-17T14:42:59;102547.59;;;0.53;75.35
36222;BME280;22266;52.340;4.962;2022-12-17T14:45:27;102544.19;;;0.51;75.57
36222;BME280;22266;52.340;4.962;2022-12-17T14:47:58;102549.13;;;0.57;75.59
36222;BME280;22266;52.340;4.962;2022-12-17T14:50:35;102551.88;;;0.55;75.46
36222;BME280;22266;52.340;4.962;2022-12-17T14:53:21;102555.97;;;0.61;75.10
36222;BME280;22266;52.340;4.962;2022-12-17T14:55:54;102557.19;;;0.55;75.33
36222;BME280;22266;52.340;4.962;2022-12-17T14:58:24;102553.84;;;0.52;75.35
36222;BME280;22266;52.340;4.962;2022-12-17T15:01:04;102557.28;;;0.54;75.26
36222;BME280;22266;52.340;4.962;2022-12-17T15:03:36;102561.63;;;0.55;75.38
36222;BME280;22266;52.340;4.962;2022-12-17T15:06:06;102560.09;;;0.51;75.63
36222;BME280;22266;52.340;4.962;2022-12-17T15:08:35;102570.84;;;0.47;75.46
36222;BME280;22266;52.340;4.962;2022-12-17T15:11:05;102566.09;;;0.38;75.58
36222;BME280;22266;52.340;4.962;2022-12-17T15:13:31;102564.44;;;0.36;75.71
36222;BME280;22266;52.340;4.962;2022-12-17T15:15:58;102575.66;;;0.41;75.67